createdAt,value
2023-04-22T00:00:17.203Z,6.70
2023-04-22T00:02:45.812Z,6.70
2023-04-22T00:05:17.024Z,6.50
2023-04-22T00:07:48.755Z,6.97
2023-04-22T00:10:16.680Z,7.03
2023-04-22T00:12:44.639Z,6.27
2023-04-22T00:15:12.791Z,5.63
2023-04-22T00:17:42.771Z,8.18
2023-04-22T00:20:12.526Z,8.30
2023-04-22T00:22:40.540Z,8.07
2023-04-22T00:25:10.424Z,7.20
2023-04-22T00:27:38.278Z,6.77
2023-04-22T00:30:07.275Z,6.50
2023-04-22T00:32:35.242Z,6.40
2023-04-22T00:35:03.252Z,6.40
2023-04-22T00:37:31.226Z,6.60
2023-04-22T00:39:59.149Z,7.17
2023-04-22T00:42:29.025Z,6.67
2023-04-22T00:44:57.725Z,6.13
2023-04-22T00:47:27.041Z,6.30
2023-04-22T00:49:55.863Z,5.80
2023-04-22T00:52:24.246Z,6.95
2023-04-22T00:54:52.860Z,5.80
2023-04-22T00:57:21.143Z,6.60
2023-04-22T00:59:50.942Z,6.77
2023-04-22T01:02:19.306Z,6.60
2023-04-22T01:04:47.984Z,6.30
2023-04-22T01:07:15.861Z,7.27
2023-04-22T01:09:44.252Z,7.63
2023-04-22T01:12:12.195Z,7.30
2023-04-22T01:14:40.563Z,9.67
2023-04-22T01:17:11.996Z,8.17
2023-04-22T01:19:41.243Z,8.43
2023-04-22T01:22:11.518Z,9.43
2023-04-22T01:24:41.081Z,8.50
2023-04-22T01:27:09.624Z,10.87
2023-04-22T01:29:39.059Z,9.27
2023-04-22T01:32:07.601Z,8.80
2023-04-22T01:34:35.673Z,10.97
2023-04-22T01:37:03.776Z,8.83
2023-04-22T01:39:31.844Z,8.70
2023-04-22T01:42:02.092Z,8.93
2023-04-22T01:44:30.175Z,11.10
2023-04-22T01:46:58.109Z,9.57
2023-04-22T01:49:26.015Z,8.67
2023-04-22T01:51:53.884Z,9.03
2023-04-22T01:54:22.023Z,8.70
2023-04-22T01:56:52.681Z,10.23
2023-04-22T01:59:22.480Z,9.23
2023-04-22T02:01:51.451Z,8.67
2023-04-22T02:04:20.055Z,8.80
2023-04-22T02:06:47.921Z,7.80
2023-04-22T02:09:15.771Z,8.33
2023-04-22T02:11:43.759Z,7.27
2023-04-22T02:14:11.690Z,9.13
2023-04-22T02:16:41.916Z,9.20
2023-04-22T02:19:10.085Z,9.00
2023-04-22T02:21:38.360Z,8.47
2023-04-22T02:24:06.654Z,7.70
2023-04-22T02:26:34.609Z,7.60
2023-04-22T02:29:02.648Z,8.60
2023-04-22T02:31:31.136Z,8.30
2023-04-22T02:34:00.545Z,10.00
2023-04-22T02:36:28.835Z,9.20
2023-04-22T02:38:56.991Z,8.67
2023-04-22T02:41:25.189Z,9.37
2023-04-22T02:43:53.226Z,10.10
2023-04-22T02:46:21.087Z,10.10
2023-04-22T02:48:49.569Z,11.60
2023-04-22T02:51:19.816Z,13.93
2023-04-22T02:53:47.757Z,12.65
2023-04-22T02:56:16.005Z,12.57
2023-04-22T02:58:43.888Z,11.05
2023-04-22T03:01:12.308Z,14.52
2023-04-22T03:03:40.840Z,11.75
2023-04-22T03:06:11.407Z,13.80
2023-04-22T03:08:40.643Z,14.32
2023-04-22T03:11:08.582Z,12.15
2023-04-22T03:13:36.415Z,11.10
2023-04-22T03:16:04.381Z,11.18
2023-04-22T03:18:32.736Z,11.15
2023-04-22T03:21:01.229Z,11.93
2023-04-22T03:23:29.130Z,13.97
2023-04-22T03:25:58.324Z,14.27
2023-04-22T03:28:26.269Z,14.27
2023-04-22T03:30:55.165Z,16.30
2023-04-22T03:33:23.399Z,11.82
2023-04-22T03:35:56.606Z,11.10
2023-04-22T03:38:25.224Z,12.40
2023-04-22T03:40:53.097Z,13.10
2023-04-22T03:43:44.053Z,11.52
2023-04-22T03:46:12.716Z,13.85
2023-04-22T03:48:44.813Z,13.45
2023-04-22T03:51:22.441Z,14.05
2023-04-22T03:53:51.173Z,14.18
2023-04-22T03:56:22.167Z,17.88
2023-04-22T03:58:52.068Z,16.38
2023-04-22T04:01:20.043Z,17.75
2023-04-22T04:03:51.988Z,14.18
2023-04-22T04:06:21.719Z,13.57
2023-04-22T04:08:49.668Z,11.65
2023-04-22T04:11:17.738Z,16.92
2023-04-22T04:13:45.890Z,14.63
2023-04-22T04:16:20.764Z,12.88
2023-04-22T04:18:54.793Z,12.32
2023-04-22T04:21:24.592Z,14.30
2023-04-22T04:23:53.801Z,12.10
2023-04-22T04:26:27.507Z,11.48
2023-04-22T04:29:02.058Z,12.50
2023-04-22T04:31:31.404Z,12.95
2023-04-22T04:34:00.812Z,15.68
2023-04-22T04:36:29.919Z,13.57
2023-04-22T04:39:09.420Z,12.40
2023-04-22T04:41:38.700Z,10.93
2023-04-22T04:44:07.815Z,13.30
2023-04-22T04:46:40.524Z,16.70
2023-04-22T04:49:12.492Z,14.23
2023-04-22T04:51:49.898Z,12.80
2023-04-22T04:54:18.062Z,11.32
2023-04-22T04:56:46.404Z,17.13
2023-04-22T04:59:15.140Z,16.30
2023-04-22T05:01:45.054Z,18.60
2023-04-22T05:04:14.373Z,17.42
2023-04-22T05:06:44.486Z,15.88
2023-04-22T05:09:14.434Z,16.23
2023-04-22T05:11:43.876Z,17.30
2023-04-22T05:14:19.656Z,16.88
2023-04-22T05:16:49.767Z,18.83
2023-04-22T05:19:18.074Z,10.53
2023-04-22T05:21:47.800Z,13.27
2023-04-22T05:24:16.936Z,14.73
2023-04-22T05:26:45.049Z,12.10
2023-04-22T05:29:19.394Z,10.80
2023-04-22T05:31:48.917Z,11.03
2023-04-22T05:34:16.858Z,10.37
2023-04-22T05:36:44.825Z,11.37
2023-04-22T05:39:13.794Z,11.00
2023-04-22T05:41:42.098Z,10.83
2023-04-22T05:44:11.931Z,12.50
2023-04-22T05:46:40.743Z,11.07
2023-04-22T05:49:10.175Z,12.37
2023-04-22T05:52:16.640Z,10.90
2023-04-22T05:54:56.581Z,12.10
2023-04-22T05:57:24.612Z,11.67
2023-04-22T05:59:52.687Z,12.40
2023-04-22T06:02:20.854Z,10.87
2023-04-22T06:04:50.421Z,12.93
2023-04-22T06:07:18.611Z,11.40
2023-04-22T06:09:46.527Z,11.80
2023-04-22T06:12:16.087Z,10.57
2023-04-22T06:14:43.950Z,10.13
2023-04-22T06:17:11.840Z,10.73
2023-04-22T06:19:40.016Z,12.03
2023-04-22T06:22:09.469Z,11.47
2023-04-22T06:24:37.261Z,11.53
2023-04-22T06:27:05.217Z,12.23
2023-04-22T06:29:33.189Z,12.50
2023-04-22T06:32:01.111Z,11.63
2023-04-22T06:34:29.151Z,10.97
2023-04-22T06:36:57.118Z,10.83
2023-04-22T06:39:26.535Z,11.53
2023-04-22T06:42:06.963Z,11.43
2023-04-22T06:45:12.780Z,10.07
2023-04-22T06:47:53.981Z,10.83
2023-04-22T06:50:32.198Z,11.03
2023-04-22T06:53:00.747Z,10.80
2023-04-22T06:55:30.142Z,10.53
2023-04-22T06:57:58.228Z,11.23
2023-04-22T07:00:28.089Z,11.10
2023-04-22T07:02:56.159Z,11.30
2023-04-22T07:05:24.173Z,11.00
2023-04-22T07:07:52.132Z,11.00
2023-04-22T07:10:22.536Z,10.80
2023-04-22T07:13:11.860Z,11.63
2023-04-22T07:15:39.788Z,12.45
2023-04-22T07:18:07.829Z,10.13
2023-04-22T07:20:35.680Z,11.33
2023-04-22T07:23:03.562Z,10.43
2023-04-22T07:25:31.471Z,10.97
2023-04-22T07:27:59.403Z,12.02
2023-04-22T07:30:28.887Z,10.30
2023-04-22T07:32:56.811Z,9.77
2023-04-22T07:35:24.684Z,9.47
2023-04-22T07:37:52.573Z,9.67
2023-04-22T07:40:20.613Z,9.63
2023-04-22T07:42:48.511Z,9.73
2023-04-22T07:45:16.516Z,9.00
2023-04-22T07:47:45.807Z,9.83
2023-04-22T07:50:13.803Z,8.50
2023-04-22T07:52:41.671Z,10.95
2023-04-22T07:55:10.034Z,8.90
2023-04-22T07:57:38.973Z,9.73
